Time;durP1;ratioP1;P1;durP2;ratioP2;P2;SDS_P1;SDS_P2;PMS_P1;PMS_P2;Temp;Humidity;BMP_temperature;BMP_pressure;BME280_temperature;BME280_humidity;BME280_pressure;Samples;Min_cycle;Max_cycle;Signal;HPM_P1;HPM_P2
2022/07/27 00:01:44;;;;;;;29.50;23.27;;;30.00;99.90;;;;;;5029769;28;20053;-50
2022/07/27 00:04:10;;;;;;;32.25;23.70;;;30.00;99.90;;;;;;5030881;28;20033;-50
2022/07/27 00:06:35;;;;;;;32.88;22.80;;;30.00;99.90;;;;;;5031065;28;20116;-50
2022/07/27 00:09:01;;;;;;;33.17;25.73;;;29.90;99.90;;;;;;5030987;28;20508;-47
2022/07/27 00:11:27;;;;;;;32.33;24.80;;;29.90;99.90;;;;;;5030781;28;20046;-51
2022/07/27 00:13:53;;;;;;;33.83;25.25;;;29.90;99.90;;;;;;5030741;28;20057;-48
2022/07/27 00:16:21;;;;;;;35.58;23.85;;;29.90;99.90;;;;;;5028646;28;20436;-48
2022/07/27 00:18:47;;;;;;;28.60;21.20;;;29.80;99.90;;;;;;5026481;28;20104;-49
2022/07/27 00:21:13;;;;;;;27.42;21.08;;;29.80;99.90;;;;;;5027603;28;20038;-48
2022/07/27 00:23:39;;;;;;;28.30;20.65;;;29.80;99.90;;;;;;5022789;28;20493;-49
2022/07/27 00:26:05;;;;;;;30.90;20.33;;;29.80;99.90;;;;;;5010496;28;20505;-48
2022/07/27 00:28:31;;;;;;;30.27;20.90;;;29.80;99.90;;;;;;5031296;28;20026;-48
2022/07/27 00:30:56;;;;;;;30.67;20.50;;;29.80;99.90;;;;;;5032793;28;20029;-48
2022/07/27 00:33:22;;;;;;;34.97;21.27;;;29.80;99.90;;;;;;5032223;28;20048;-48
2022/07/27 00:35:48;;;;;;;27.38;19.65;;;29.80;99.90;;;;;;5032748;28;20029;-48
2022/07/27 00:38:15;;;;;;;25.67;17.52;;;29.80;99.90;;;;;;5032466;28;20087;-48
2022/07/27 00:40:41;;;;;;;25.77;17.70;;;29.80;99.90;;;;;;5032941;28;20037;-48
2022/07/27 00:43:06;;;;;;;29.27;19.38;;;29.80;99.90;;;;;;5031563;28;20025;-48
2022/07/27 00:45:32;;;;;;;29.83;21.85;;;29.70;99.90;;;;;;5033029;28;20084;-49
2022/07/27 00:47:58;;;;;;;24.13;20.85;;;29.70;99.90;;;;;;5032782;28;20394;-49
2022/07/27 00:50:24;;;;;;;25.08;19.45;;;29.70;99.90;;;;;;5032813;28;20104;-49
2022/07/27 00:52:51;;;;;;;23.98;20.80;;;29.70;99.90;;;;;;5032817;28;20029;-49
2022/07/27 00:55:16;;;;;;;22.98;20.50;;;29.70;99.90;;;;;;5033060;28;20080;-49
2022/07/27 00:57:42;;;;;;;28.58;21.40;;;29.70;99.90;;;;;;5047907;28;20031;-49
2022/07/27 01:00:09;;;;;;;28.98;23.77;;;29.70;99.90;;;;;;5050950;23;20144;-47
2022/07/27 01:02:35;;;;;;;32.07;23.87;;;29.60;99.90;;;;;;5052368;28;20469;-47
2022/07/27 01:05:01;;;;;;;36.67;24.77;;;29.60;99.90;;;;;;5052511;28;20349;-48
2022/07/27 01:07:30;;;;;;;32.80;22.50;;;29.60;99.90;;;;;;5051263;28;20381;-48
2022/07/27 01:09:57;;;;;;;27.67;23.25;;;29.70;99.90;;;;;;5052272;28;20025;-48
2022/07/27 01:12:25;;;;;;;31.55;21.77;;;29.60;99.90;;;;;;5052154;28;20064;-48
2022/07/27 01:14:52;;;;;;;33.40;24.02;;;29.60;99.90;;;;;;5052306;28;20048;-48
2022/07/27 01:17:18;;;;;;;28.60;23.63;;;29.60;99.90;;;;;;5052487;28;20107;-48
2022/07/27 01:19:44;;;;;;;29.35;22.17;;;29.60;99.90;;;;;;5052184;28;20095;-48
2022/07/27 01:22:10;;;;;;;32.95;23.27;;;29.60;99.90;;;;;;5052058;28;20022;-48
2022/07/27 01:24:37;;;;;;;29.42;22.45;;;29.60;99.90;;;;;;5051951;28;20025;-48
2022/07/27 01:27:04;;;;;;;31.75;22.25;;;29.60;99.90;;;;;;5051975;28;20032;-48
2022/07/27 01:29:31;;;;;;;27.25;21.83;;;29.60;99.90;;;;;;5052008;28;20421;-47
2022/07/27 01:31:57;;;;;;;29.20;21.67;;;29.60;99.90;;;;;;5051890;28;20051;-48
2022/07/27 01:34:23;;;;;;;31.10;22.87;;;29.50;99.90;;;;;;5051881;28;20048;-48
2022/07/27 01:36:49;;;;;;;30.10;26.13;;;29.60;99.90;;;;;;5052017;28;20025;-48
2022/07/27 01:39:16;;;;;;;29.45;22.42;;;29.60;99.90;;;;;;5051818;28;20048;-48
2022/07/27 01:41:42;;;;;;;33.47;24.75;;;29.60;99.90;;;;;;5051827;28;20029;-48
2022/07/27 01:44:08;;;;;;;27.75;23.20;;;29.60;99.90;;;;;;5051845;28;20035;-48
2022/07/27 01:46:34;;;;;;;28.77;24.20;;;29.50;99.90;;;;;;5051679;28;20404;-47
2022/07/27 01:49:00;;;;;;;32.35;24.30;;;29.50;99.90;;;;;;5051676;28;20029;-48
2022/07/27 01:51:26;;;;;;;27.88;22.45;;;29.50;99.90;;;;;;5051439;28;20473;-48
2022/07/27 01:53:52;;;;;;;29.80;23.80;;;29.50;99.90;;;;;;5051925;28;20040;-48
2022/07/27 01:56:18;;;;;;;25.30;22.27;;;29.50;99.90;;;;;;5051674;28;20044;-48
2022/07/27 01:58:43;;;;;;;27.67;21.85;;;29.50;99.90;;;;;;5051418;28;20029;-49
2022/07/27 02:01:09;;;;;;;31.33;21.88;;;29.50;99.90;;;;;;5063375;22;20061;-49
2022/07/27 02:03:36;;;;;;;27.00;22.00;;;29.50;99.90;;;;;;5051525;28;20035;-49
2022/07/27 02:06:03;;;;;;;24.02;21.40;;;29.50;99.90;;;;;;5051511;28;20064;-49
2022/07/27 02:08:29;;;;;;;;;;;29.50;99.90;;;;;;5051714;28;20523;-48
2022/07/27 02:13:43;;;;;;;24.80;19.95;;;29.50;99.90;;;;;;5051592;28;20044;-47
2022/07/27 02:16:09;;;;;;;27.42;20.55;;;29.50;99.90;;;;;;5051193;28;20022;-47
2022/07/27 02:18:35;;;;;;;26.77;20.35;;;29.50;99.90;;;;;;5051171;28;20053;-48
2022/07/27 02:21:00;;;;;;;26.13;21.38;;;29.50;99.90;;;;;;5051161;28;20112;-49
2022/07/27 02:23:26;;;;;;;23.48;20.88;;;29.50;99.90;;;;;;5051208;28;20021;-49
2022/07/27 02:25:52;;;;;;;26.63;20.17;;;29.50;99.90;;;;;;5049889;28;20028;-49
2022/07/27 02:28:18;;;;;;;23.20;18.65;;;29.50;99.90;;;;;;5051095;28;20033;-49
2022/07/27 02:30:45;;;;;;;24.80;19.67;;;29.50;99.90;;;;;;5051020;28;20040;-49
2022/07/27 02:33:10;;;;;;;23.95;18.48;;;29.50;99.90;;;;;;5050964;28;20027;-48
2022/07/27 02:35:36;;;;;;;27.83;19.35;;;29.50;99.90;;;;;;5051025;28;20020;-49
2022/07/27 02:38:02;;;;;;;23.85;19.58;;;29.50;99.90;;;;;;5051054;28;20048;-49
2022/07/27 02:40:27;;;;;;;23.45;18.27;;;29.50;99.90;;;;;;5050911;28;20032;-49
2022/07/27 02:42:53;;;;;;;26.70;18.17;;;29.50;99.90;;;;;;5051170;28;20025;-49
2022/07/27 02:45:19;;;;;;;29.88;20.88;;;29.50;99.90;;;;;;5049591;28;20029;-48
2022/07/27 02:47:45;;;;;;;25.40;21.38;;;29.50;99.90;;;;;;5050969;28;20021;-49
2022/07/27 02:50:11;;;;;;;26.58;21.95;;;29.50;99.90;;;;;;5050908;28;20062;-49
2022/07/27 02:52:37;;;;;;;28.90;20.52;;;29.50;99.90;;;;;;5049379;28;20037;-49
2022/07/27 02:55:04;;;;;;;26.13;21.10;;;29.40;99.90;;;;;;5050662;28;20139;-48
2022/07/27 02:57:33;;;;;;;25.65;21.65;;;29.40;99.90;;;;;;5050792;28;20033;-49
2022/07/27 02:59:59;;;;;;;28.45;21.27;;;29.40;99.90;;;;;;5062472;23;20049;-49
2022/07/27 03:02:25;;;;;;;23.00;20.00;;;29.50;99.90;;;;;;5035325;28;20044;-48
2022/07/27 03:04:51;;;;;;;24.83;19.20;;;29.40;99.90;;;;;;5054778;28;20469;-55
2022/07/27 03:07:17;;;;;;;22.43;19.00;;;29.50;99.90;;;;;;5054640;28;20040;-48
2022/07/27 03:09:43;;;;;;;30.23;20.90;;;29.40;99.90;;;;;;5054582;28;20262;-48
2022/07/27 03:12:09;;;;;;;24.08;19.70;;;29.40;99.90;;;;;;5054525;28;20039;-49
2022/07/27 03:14:34;;;;;;;25.23;20.20;;;29.40;99.90;;;;;;5054483;28;20465;-48
2022/07/27 03:17:00;;;;;;;26.58;19.40;;;29.40;99.90;;;;;;5054471;28;20491;-49
2022/07/27 03:19:27;;;;;;;27.55;19.98;;;29.40;99.90;;;;;;5054607;28;20025;-48
2022/07/27 03:21:53;;;;;;;25.47;20.23;;;29.40;99.90;;;;;;5054351;28;20553;-48
2022/07/27 03:24:19;;;;;;;26.48;18.90;;;29.30;99.90;;;;;;5054383;28;20051;-48
2022/07/27 03:26:45;;;;;;;26.88;19.65;;;29.30;99.90;;;;;;5054218;28;20036;-48
2022/07/27 03:29:12;;;;;;;29.80;20.57;;;29.30;99.90;;;;;;5054192;28;20060;-49
2022/07/27 03:31:38;;;;;;;26.73;19.35;;;29.30;99.90;;;;;;5054081;28;20045;-49
2022/07/27 03:34:04;;;;;;;26.75;19.30;;;29.30;99.90;;;;;;5053993;28;20112;-49
2022/07/27 03:36:29;;;;;;;25.60;20.35;;;29.30;99.90;;;;;;5053944;28;20469;-49
2022/07/27 03:38:55;;;;;;;32.90;20.45;;;29.30;99.90;;;;;;5054272;28;20041;-48
2022/07/27 03:41:21;;;;;;;23.40;18.20;;;29.30;99.90;;;;;;5053867;28;20438;-55
2022/07/27 03:43:47;;;;;;;29.52;20.08;;;29.30;99.90;;;;;;5053902;28;20048;-48
2022/07/27 03:46:12;;;;;;;26.48;18.70;;;29.30;99.90;;;;;;5053908;28;20046;-49
2022/07/27 03:48:39;;;;;;;27.30;20.30;;;29.30;99.90;;;;;;5053875;28;20056;-49
2022/07/27 03:51:05;;;;;;;27.33;19.58;;;29.20;99.90;;;;;;5053826;28;20469;-49
2022/07/27 03:53:31;;;;;;;22.85;19.50;;;29.20;99.90;;;;;;5053768;28;20534;-49
2022/07/27 03:55:57;;;;;;;26.08;21.17;;;29.20;99.90;;;;;;5053797;28;20021;-49
2022/07/27 03:58:23;;;;;;;25.73;19.10;;;29.20;99.90;;;;;;5053718;28;20032;-50
2022/07/27 04:00:49;;;;;;;26.98;20.40;;;29.20;99.90;;;;;;5036575;28;20041;-49
2022/07/27 04:03:16;;;;;;;27.33;20.38;;;29.20;99.90;;;;;;5053634;28;20056;-49
2022/07/27 04:05:42;;;;;;;26.48;21.50;;;29.20;99.90;;;;;;5035767;28;20178;-49
2022/07/27 04:08:08;;;;;;;22.70;20.42;;;29.20;99.90;;;;;;5053459;28;20503;-49
2022/07/27 04:10:33;;;;;;;30.40;21.60;;;29.20;99.90;;;;;;5053340;28;20025;-49
2022/07/27 04:12:59;;;;;;;29.02;20.48;;;29.20;99.90;;;;;;5052632;28;20091;-51
2022/07/27 04:15:25;;;;;;;26.77;19.80;;;29.20;99.90;;;;;;5053221;28;20029;-49
2022/07/27 04:17:52;;;;;;;27.70;21.80;;;29.10;99.90;;;;;;5053543;28;20032;-49
2022/07/27 04:20:18;;;;;;;29.77;19.80;;;29.10;99.90;;;;;;5053303;28;20134;-49
2022/07/27 04:22:44;;;;;;;33.30;21.17;;;29.10;99.90;;;;;;5053193;28;20025;-49
2022/07/27 04:25:10;;;;;;;28.58;22.20;;;29.10;99.90;;;;;;5053240;28;20070;-49
2022/07/27 04:27:36;;;;;;;29.10;20.27;;;29.10;99.90;;;;;;5053312;28;20025;-49
2022/07/27 04:30:03;;;;;;;31.00;21.48;;;29.10;99.90;;;;;;5053457;28;20362;-49
2022/07/27 04:32:29;;;;;;;35.50;22.42;;;29.10;99.90;;;;;;5053178;28;20079;-49
2022/07/27 04:34:55;;;;;;;28.38;20.45;;;29.10;99.90;;;;;;5053110;28;20029;-49
2022/07/27 04:37:20;;;;;;;31.08;20.70;;;29.10;99.90;;;;;;5052984;28;20033;-49
2022/07/27 04:39:46;;;;;;;25.98;20.30;;;29.10;99.90;;;;;;5052918;28;20028;-49
2022/07/27 04:42:12;;;;;;;25.05;19.70;;;29.10;99.90;;;;;;5034887;28;20028;-49
2022/07/27 04:44:38;;;;;;;27.48;20.52;;;29.10;99.90;;;;;;5052806;28;20076;-49
2022/07/27 04:47:03;;;;;;;27.10;19.98;;;29.10;99.90;;;;;;5052944;28;20103;-49
2022/07/27 04:49:29;;;;;;;27.13;21.40;;;29.10;99.90;;;;;;5052826;28;20376;-49
2022/07/27 04:51:55;;;;;;;41.22;21.83;;;29.10;99.90;;;;;;5052527;28;20037;-49
2022/07/27 04:54:21;;;;;;;30.30;20.52;;;29.10;99.90;;;;;;5052702;28;20031;-49
2022/07/27 04:56:47;;;;;;;22.92;19.50;;;29.10;99.90;;;;;;5052476;28;20086;-49
2022/07/27 04:59:12;;;;;;;29.05;20.42;;;29.10;99.90;;;;;;5052686;28;20017;-49
2022/07/27 05:01:38;;;;;;;28.95;21.30;;;29.10;99.90;;;;;;5034596;28;20063;-49
2022/07/27 05:04:04;;;;;;;28.52;21.17;;;29.00;99.90;;;;;;5052654;28;20028;-49
2022/07/27 05:06:31;;;;;;;27.88;21.70;;;29.00;99.90;;;;;;5052486;28;20469;-49
2022/07/27 05:08:58;;;;;;;24.73;21.03;;;29.00;99.90;;;;;;5052341;28;20039;-49
2022/07/27 05:11:24;;;;;;;39.13;22.90;;;29.00;99.90;;;;;;5052257;28;20769;-49
2022/07/27 05:13:50;;;;;;;29.00;21.40;;;29.00;99.90;;;;;;5052184;28;20157;-49
2022/07/27 05:16:15;;;;;;;35.05;20.42;;;29.00;99.90;;;;;;5052273;28;20078;-50
2022/07/27 05:18:41;;;;;;;43.08;22.23;;;29.00;99.90;;;;;;5052102;28;20029;-49
2022/07/27 05:21:08;;;;;;;30.55;20.88;;;29.00;99.90;;;;;;5052096;28;20498;-50
2022/07/27 05:23:34;;;;;;;33.55;21.02;;;29.00;99.90;;;;;;5052327;28;20381;-49
2022/07/27 05:26:00;;;;;;;28.40;22.00;;;29.00;99.90;;;;;;5051779;28;20043;-49
2022/07/27 05:28:26;;;;;;;42.38;23.65;;;29.00;99.90;;;;;;5051980;28;20443;-49
2022/07/27 05:30:52;;;;;;;34.13;19.88;;;29.00;99.90;;;;;;5034048;28;20029;-50
2022/07/27 05:33:18;;;;;;;72.35;24.55;;;29.00;99.90;;;;;;5051924;28;20373;-50
2022/07/27 05:35:43;;;;;;;58.00;23.70;;;29.00;99.90;;;;;;5051838;28;20461;-49
2022/07/27 05:38:09;;;;;;;48.70;22.85;;;28.90;99.90;;;;;;5051742;28;20025;-50
2022/07/27 05:40:35;;;;;;;39.08;21.48;;;28.90;99.90;;;;;;5051918;28;20389;-50
2022/07/27 05:43:00;;;;;;;49.65;21.45;;;28.90;99.90;;;;;;5033928;28;20461;-50
2022/07/27 05:45:26;;;;;;;54.38;23.80;;;28.90;99.90;;;;;;5051726;28;20033;-50
2022/07/27 05:47:53;;;;;;;45.58;21.20;;;28.90;99.90;;;;;;5051864;28;20093;-49
2022/07/27 05:50:19;;;;;;;42.67;21.50;;;28.90;99.90;;;;;;5051652;28;20544;-50
2022/07/27 05:52:45;;;;;;;34.67;21.35;;;28.90;99.90;;;;;;5051403;28;20076;-49
2022/07/27 05:55:11;;;;;;;31.95;21.25;;;28.90;99.90;;;;;;5051353;28;20052;-49
2022/07/27 05:57:39;;;;;;;30.70;20.65;;;28.90;99.90;;;;;;5051738;28;20381;-50
2022/07/27 06:00:07;;;;;;;32.30;21.23;;;28.90;99.90;;;;;;5051425;28;20052;-50
2022/07/27 06:02:33;;;;;;;26.63;20.05;;;28.90;99.90;;;;;;5050931;28;20049;-50
2022/07/27 06:04:59;;;;;;;24.55;18.55;;;28.90;99.90;;;;;;5051340;28;20468;-50
2022/07/27 06:10:10;;;;;;;32.42;19.15;;;28.90;99.90;;;;;;5051553;28;20048;-50
2022/07/27 06:12:40;;;;;;;36.63;19.30;;;28.90;99.90;;;;;;5051260;28;20037;-50
2022/07/27 06:15:08;;;;;;;32.45;18.85;;;28.90;99.90;;;;;;5033483;28;20056;-50
2022/07/27 06:17:34;;;;;;;25.55;18.02;;;28.90;99.90;;;;;;5050883;28;20029;-50
2022/07/27 06:20:01;;;;;;;32.77;19.53;;;28.90;99.90;;;;;;5050769;28;20021;-51
2022/07/27 06:22:27;;;;;;;24.98;19.73;;;28.90;99.90;;;;;;5033125;28;20104;-51
2022/07/27 06:24:52;;;;;;;27.35;18.65;;;28.90;99.90;;;;;;5050787;28;20017;-51
2022/07/27 06:27:18;;;;;;;28.33;17.35;;;28.90;99.90;;;;;;5050773;28;20108;-50
2022/07/27 06:29:44;;;;;;;23.10;18.00;;;28.90;99.90;;;;;;5050861;28;20033;-51
2022/07/27 06:32:10;;;;;;;27.30;19.45;;;28.90;99.90;;;;;;5051030;28;20033;-50
2022/07/27 06:34:36;;;;;;;48.53;37.10;;;28.90;99.90;;;;;;5050974;28;20401;-50
2022/07/27 06:37:01;;;;;;;49.90;36.95;;;28.90;99.90;;;;;;5050157;28;20492;-50
2022/07/27 06:39:28;;;;;;;33.05;23.27;;;28.90;99.90;;;;;;5050777;28;20423;-50
2022/07/27 06:41:55;;;;;;;31.92;23.08;;;28.90;99.90;;;;;;5050948;28;20488;-50
2022/07/27 06:44:21;;;;;;;34.67;26.25;;;28.90;99.90;;;;;;5050815;28;20025;-51
2022/07/27 06:46:46;;;;;;;36.45;24.23;;;28.90;99.90;;;;;;5049561;28;20466;-50
2022/07/27 06:49:12;;;;;;;30.90;21.08;;;28.90;99.90;;;;;;5050687;28;20017;-50
2022/07/27 06:51:38;;;;;;;30.17;20.13;;;28.90;99.90;;;;;;5051030;28;20037;-50
2022/07/27 06:54:04;;;;;;;22.75;18.42;;;28.90;99.90;;;;;;5050617;28;20393;-49
2022/07/27 06:56:31;;;;;;;22.50;17.00;;;28.90;99.90;;;;;;5050642;28;20021;-53
2022/07/27 06:58:56;;;;;;;24.55;19.25;;;29.00;99.90;;;;;;5050771;28;20031;-50
2022/07/27 07:01:22;;;;;;;27.58;19.23;;;28.90;99.90;;;;;;5050567;28;20045;-49
2022/07/27 07:03:48;;;;;;;23.48;18.10;;;28.90;99.90;;;;;;5050856;28;20124;-49
2022/07/27 07:06:14;;;;;;;27.02;18.98;;;28.90;99.90;;;;;;5050773;28;20102;-51
2022/07/27 07:08:40;;;;;;;34.50;18.38;;;29.00;99.90;;;;;;5050577;28;20068;-49
2022/07/27 07:11:05;;;;;;;22.95;17.60;;;29.00;99.90;;;;;;5050542;28;20061;-50
2022/07/27 07:13:32;;;;;;;27.90;18.13;;;29.00;99.90;;;;;;5050536;28;20018;-49
2022/07/27 07:15:58;;;;;;;26.40;19.73;;;29.00;99.90;;;;;;5050493;28;20890;-49
2022/07/27 07:18:24;;;;;;;26.60;18.67;;;29.00;99.90;;;;;;5032806;28;20107;-50
2022/07/27 07:20:49;;;;;;;25.42;18.60;;;29.00;99.90;;;;;;5050473;28;20025;-50
2022/07/27 07:23:15;;;;;;;28.52;17.63;;;29.00;99.90;;;;;;5050304;28;20049;-49
2022/07/27 07:25:41;;;;;;;28.27;16.98;;;29.00;99.90;;;;;;5050720;28;20039;-49
2022/07/27 07:28:07;;;;;;;26.15;17.92;;;29.00;99.90;;;;;;5050492;28;20112;-50
2022/07/27 07:30:33;;;;;;;24.60;15.73;;;29.00;99.90;;;;;;5050278;28;20036;-50
2022/07/27 07:32:58;;;;;;;19.50;17.42;;;29.00;99.90;;;;;;5050123;28;20120;-51
2022/07/27 07:35:25;;;;;;;31.50;17.50;;;29.00;99.90;;;;;;5050391;28;20036;-50
2022/07/27 07:37:51;;;;;;;19.23;15.43;;;29.00;99.90;;;;;;5050240;28;20120;-50
2022/07/27 07:40:18;;;;;;;35.78;19.05;;;29.00;99.90;;;;;;5032535;28;20112;-50
2022/07/27 07:42:59;;;;;;;25.55;18.13;;;29.00;99.90;;;;;;5050398;28;20032;-50
2022/07/27 07:45:27;;;;;;;25.52;18.27;;;29.00;99.90;;;;;;5050331;28;20286;-57
2022/07/27 07:47:53;;;;;;;27.48;16.77;;;28.90;99.90;;;;;;5051170;28;20462;-50
2022/07/27 07:50:20;;;;;;;23.52;19.13;;;29.00;99.90;;;;;;5053802;28;20040;-50
2022/07/27 07:52:51;;;;;;;21.92;17.30;;;29.00;99.90;;;;;;5053664;28;20041;-50
2022/07/27 07:55:23;;;;;;;23.77;17.40;;;29.00;99.90;;;;;;5053712;28;20033;-50
2022/07/27 07:57:49;;;;;;;22.88;16.83;;;28.90;99.90;;;;;;5053580;28;20040;-50
2022/07/27 08:00:17;;;;;;;31.27;17.02;;;28.90;99.90;;;;;;5053729;28;20049;-50
2022/07/27 08:02:48;;;;;;;23.70;16.45;;;29.00;99.90;;;;;;5053784;28;20032;-51
2022/07/27 08:05:15;;;;;;;20.40;16.73;;;28.90;99.90;;;;;;5053694;28;20032;-50
2022/07/27 08:07:42;;;;;;;24.58;16.52;;;28.90;99.90;;;;;;5053522;28;20025;-50
2022/07/27 08:10:09;;;;;;;19.98;17.08;;;28.90;99.90;;;;;;5053485;28;20031;-51
2022/07/27 08:12:37;;;;;;;20.73;16.05;;;28.90;99.90;;;;;;5035675;28;20040;-50
2022/07/27 08:15:05;;;;;;;28.38;16.90;;;29.00;99.90;;;;;;5053342;28;20531;-50
2022/07/27 08:17:30;;;;;;;26.17;17.42;;;28.90;99.90;;;;;;5053254;28;20043;-49
2022/07/27 08:19:56;;;;;;;24.73;16.38;;;29.00;99.90;;;;;;5053160;28;20025;-49
2022/07/27 08:22:23;;;;;;;23.95;16.67;;;28.90;99.90;;;;;;5053258;28;20048;-50
2022/07/27 08:24:48;;;;;;;22.42;17.58;;;28.80;99.90;;;;;;5053033;28;20025;-49
2022/07/27 08:27:14;;;;;;;24.15;16.52;;;28.70;99.90;;;;;;5053319;28;20075;-50
2022/07/27 08:29:40;;;;;;;23.70;16.33;;;28.70;99.90;;;;;;5053324;28;20017;-49
2022/07/27 08:32:06;;;;;;;21.70;17.42;;;28.60;99.90;;;;;;5052970;28;20041;-50
2022/07/27 08:34:32;;;;;;;30.45;18.70;;;28.60;99.90;;;;;;5052943;28;20017;-50
2022/07/27 08:36:57;;;;;;;20.33;17.55;;;28.60;99.90;;;;;;5053075;28;20025;-50
2022/07/27 08:39:24;;;;;;;21.88;17.45;;;28.60;99.90;;;;;;5053029;28;20385;-50
2022/07/27 08:41:53;;;;;;;24.50;19.35;;;28.50;99.90;;;;;;5052838;28;20029;-49
2022/07/27 08:44:23;;;;;;;22.77;17.73;;;28.40;99.90;;;;;;5053040;28;20113;-49
2022/07/27 08:46:50;;;;;;;27.42;17.33;;;28.40;99.90;;;;;;5052834;28;20032;-50
2022/07/27 08:49:17;;;;;;;27.27;18.50;;;28.30;99.90;;;;;;5052958;28;20377;-50
2022/07/27 08:51:43;;;;;;;27.00;18.13;;;28.30;99.90;;;;;;5052595;28;20044;-49
2022/07/27 08:54:10;;;;;;;27.38;18.17;;;28.20;99.90;;;;;;5052622;28;20104;-49
2022/07/27 08:56:36;;;;;;;25.67;17.38;;;28.20;99.90;;;;;;5052600;28;20098;-48
2022/07/27 08:59:03;;;;;;;23.23;18.70;;;28.10;99.90;;;;;;5052209;28;20025;-49
2022/07/27 09:01:34;;;;;;;20.27;17.67;;;28.10;99.90;;;;;;5052059;28;20531;-49
2022/07/27 09:04:00;;;;;;;26.40;19.58;;;28.10;99.90;;;;;;5052450;28;20029;-49
2022/07/27 09:06:46;;;;;;;23.00;18.02;;;28.10;99.90;;;;;;5052589;28;20021;-49
2022/07/27 09:09:14;;;;;;;23.67;18.73;;;28.10;99.90;;;;;;5052420;28;20017;-48
2022/07/27 09:11:40;;;;;;;23.77;18.38;;;28.10;99.90;;;;;;5034386;28;20041;-49
2022/07/27 09:14:11;;;;;;;31.30;19.27;;;28.10;99.90;;;;;;5052273;28;20136;-49
2022/07/27 09:16:38;;;;;;;25.55;20.00;;;28.10;99.90;;;;;;5052026;28;20029;-49
2022/07/27 09:19:07;;;;;;;33.00;20.52;;;28.00;99.90;;;;;;5051901;28;20033;-49
2022/07/27 09:21:35;;;;;;;28.27;19.58;;;28.00;99.90;;;;;;5052098;28;20033;-50
2022/07/27 09:24:14;;;;;;;28.88;20.73;;;28.00;99.90;;;;;;5051948;28;20056;-49
2022/07/27 09:26:41;;;;;;;27.10;19.60;;;28.00;99.90;;;;;;5051847;28;20037;-50
2022/07/27 09:29:14;;;;;;;29.25;20.88;;;28.00;99.90;;;;;;5052085;28;20497;-50
2022/07/27 09:31:50;;;;;;;29.55;21.15;;;28.00;99.90;;;;;;5051723;28;20052;-50
2022/07/27 09:34:32;;;;;;;24.40;19.70;;;28.00;99.90;;;;;;5051697;28;20504;-49
2022/07/27 09:36:59;;;;;;;28.52;20.10;;;27.90;99.90;;;;;;5051714;28;20017;-50
2022/07/27 09:39:26;;;;;;;;;;;27.80;99.90;;;;;;5052120;28;20028;-50
2022/07/27 09:41:58;;;;;;;33.88;22.38;;;27.80;99.90;;;;;;5051815;28;20431;-50
2022/07/27 09:44:41;;;;;;;26.98;22.02;;;27.70;99.90;;;;;;5051358;28;20029;-50
2022/07/27 09:47:28;;;;;;;23.58;20.33;;;27.70;99.90;;;;;;5051660;28;20493;-50
2022/07/27 09:50:18;;;;;;;23.35;18.55;;;27.60;99.90;;;;;;5051493;28;20135;-49
2022/07/27 09:52:44;;;;;;;30.65;23.58;;;27.60;99.90;;;;;;5051070;28;20045;-49
2022/07/27 09:55:10;;;;;;;22.60;20.15;;;27.50;99.90;;;;;;5051191;28;20388;-49
2022/07/27 09:57:56;;;;;;;33.40;22.27;;;27.50;99.90;;;;;;5051253;28;20025;-50
2022/07/27 10:00:23;;;;;;;35.10;23.25;;;27.50;99.90;;;;;;5033539;28;20045;-49
2022/07/27 10:02:50;;;;;;;32.55;23.35;;;27.50;99.90;;;;;;5051254;28;20033;-49
2022/07/27 10:05:18;;;;;;;;;;;27.60;99.90;;;;;;5051857;28;20063;-49
2022/07/27 10:07:44;;;;;;;29.63;26.42;;;27.60;99.90;;;;;;5033212;28;19905;-49
2022/07/27 10:10:13;;;;;;;27.38;19.80;;;27.60;99.90;;;;;;5051050;28;20495;-49
2022/07/27 10:12:40;;;;;;;23.10;16.75;;;27.70;99.90;;;;;;5032304;28;20511;-49
2022/07/27 10:15:07;;;;;;;19.00;16.10;;;27.70;99.90;;;;;;5051113;28;20079;-49
2022/07/27 10:17:34;;;;;;;21.02;16.58;;;27.70;99.90;;;;;;5050779;28;20071;-49
2022/07/27 10:20:04;;;;;;;29.02;15.45;;;27.70;99.90;;;;;;5050998;28;20021;-49
2022/07/27 10:22:50;;;;;;;18.08;13.07;;;27.70;99.90;;;;;;5033060;28;20053;-49
2022/07/27 10:25:15;;;;;;;19.58;13.63;;;27.70;99.90;;;;;;5050743;28;20449;-49
2022/07/27 10:27:44;;;;;;;18.27;9.73;;;27.70;99.90;;;;;;5050740;28;20047;-49
2022/07/27 10:30:12;;;;;;;17.58;10.40;;;27.60;99.90;;;;;;5050946;28;20029;-49
2022/07/27 10:32:38;;;;;;;29.52;10.25;;;27.60;99.90;;;;;;5050635;28;20051;-49
2022/07/27 10:35:05;;;;;;;23.73;6.10;;;27.60;99.90;;;;;;5050715;28;20395;-49
2022/07/27 10:37:32;;;;;;;14.38;6.53;;;27.60;99.90;;;;;;5033134;28;20021;-49
2022/07/27 10:43:15;;;;;;;17.52;11.48;;;27.60;99.90;;;;;;5051113;28;20082;-49
2022/07/27 10:45:47;;;;;;;19.15;11.02;;;27.70;99.90;;;;;;5050670;28;20028;-49
2022/07/27 10:48:48;;;;;;;22.77;12.27;;;27.80;99.90;;;;;;5050703;28;20063;-49
2022/07/27 10:51:15;;;;;;;20.58;11.98;;;27.90;99.90;;;;;;4969779;28;20097;-49
2022/07/27 10:53:42;;;;;;;21.97;10.93;;;27.90;99.90;;;;;;5033614;28;20092;-49
2022/07/27 10:56:09;;;;;;;14.77;9.95;;;27.90;99.90;;;;;;5048714;28;20298;-49
2022/07/27 10:58:34;;;;;;;15.40;8.25;;;27.90;99.90;;;;;;5047740;28;20068;-49
2022/07/27 11:01:03;;;;;;;17.33;10.40;;;28.00;99.90;;;;;;5049096;28;20068;-50
2022/07/27 11:03:34;;;;;;;14.43;8.95;;;28.00;99.90;;;;;;5049201;28;20055;-47
2022/07/27 11:06:07;;;;;;;16.75;7.65;;;28.00;99.90;;;;;;5040082;28;20040;-49
2022/07/27 11:08:36;;;;;;;11.35;6.38;;;28.00;99.90;;;;;;5033890;28;20453;-50
2022/07/27 11:11:03;;;;;;;14.43;5.53;;;28.10;99.90;;;;;;5045350;28;20087;-51
2022/07/27 11:13:30;;;;;;;16.65;5.47;;;28.10;99.90;;;;;;5032287;28;20432;-50
2022/07/27 11:15:59;;;;;;;13.38;4.63;;;28.10;99.90;;;;;;5049352;28;20033;-49
2022/07/27 11:18:29;;;;;;;17.50;4.50;;;28.20;99.90;;;;;;5047487;28;20039;-49
2022/07/27 11:21:14;;;;;;;19.10;4.60;;;28.20;99.90;;;;;;5045676;28;20017;-49
2022/07/27 11:23:40;;;;;;;15.73;5.28;;;28.20;99.90;;;;;;5050334;28;20025;-50
2022/07/27 11:26:06;;;;;;;17.63;5.80;;;28.20;99.90;;;;;;5050337;28;20108;-49
2022/07/27 11:28:33;;;;;;;15.25;5.50;;;28.10;99.90;;;;;;5054040;28;20353;-50
2022/07/27 11:31:00;;;;;;;17.23;5.07;;;28.10;99.90;;;;;;5036391;28;20028;-50
2022/07/27 11:33:27;;;;;;;13.85;5.10;;;28.20;99.90;;;;;;5033882;28;20052;-50
2022/07/27 11:35:55;;;;;;;14.77;5.97;;;28.20;99.90;;;;;;5054149;28;20017;-49
2022/07/27 11:38:21;;;;;;;13.48;4.05;;;28.20;99.90;;;;;;5051344;28;20063;-50
2022/07/27 11:40:50;;;;;;;17.63;4.25;;;28.20;99.90;;;;;;5052796;28;20074;-49
2022/07/27 11:43:37;;;;;;;18.52;4.50;;;28.20;99.90;;;;;;5053827;28;20111;-49
2022/07/27 11:46:21;;;;;;;16.20;3.80;;;28.30;99.90;;;;;;5048254;28;20346;-49
2022/07/27 11:49:11;;;;;;;14.77;5.60;;;28.30;99.90;;;;;;5052352;28;20040;-50
2022/07/27 11:51:46;;;;;;;16.73;4.22;;;28.30;99.90;;;;;;5051473;28;20037;-50
2022/07/27 11:54:17;;;;;;;21.35;4.88;;;28.20;99.90;;;;;;5053408;28;20021;-50
2022/07/27 11:56:47;;;;;;;17.00;4.80;;;28.20;99.90;;;;;;5047081;28;20017;-50
2022/07/27 11:59:21;;;;;;;16.45;4.97;;;28.30;99.90;;;;;;5050239;28;20122;-49
2022/07/27 12:01:50;;;;;;;17.73;4.43;;;28.20;99.90;;;;;;5053157;28;20076;-49
2022/07/27 12:04:25;;;;;;;26.83;4.85;;;28.30;99.90;;;;;;5052413;28;20032;-53
2022/07/27 12:06:55;;;;;;;12.30;4.70;;;28.30;99.90;;;;;;5051829;28;20032;-51
2022/07/27 12:09:22;;;;;;;17.88;4.95;;;28.30;99.90;;;;;;5041381;28;20624;-51
2022/07/27 12:11:57;;;;;;;18.30;5.10;;;28.40;99.90;;;;;;5048966;28;20041;-51
2022/07/27 12:14:33;;;;;;;21.52;5.30;;;28.50;99.90;;;;;;5033717;28;20028;-51
2022/07/27 12:17:31;;;;;;;17.95;4.90;;;28.60;99.90;;;;;;5049867;28;20025;-50
2022/07/27 12:20:07;;;;;;;18.30;4.22;;;28.70;99.90;;;;;;5052500;28;20033;-50
2022/07/27 12:22:45;;;;;;;15.52;4.25;;;28.70;99.90;;;;;;5051476;28;20075;-50
2022/07/27 12:25:17;;;;;;;18.33;4.90;;;28.70;99.90;;;;;;5050531;28;20032;-50
2022/07/27 12:27:57;;;;;;;23.35;5.70;;;28.70;99.90;;;;;;5053127;28;20029;-51
2022/07/27 12:30:36;;;;;;;22.05;5.53;;;28.70;99.90;;;;;;5052566;28;20025;-50
2022/07/27 12:33:24;;;;;;;17.73;4.85;;;28.70;99.90;;;;;;5052429;28;20037;-50
2022/07/27 12:35:50;;;;;;;16.83;5.05;;;28.70;99.90;;;;;;5051239;28;20096;-52
2022/07/27 12:38:15;;;;;;;14.75;4.20;;;28.80;99.90;;;;;;5052410;28;20480;-50
2022/07/27 12:40:48;;;;;;;13.68;4.78;;;28.80;99.90;;;;;;5052564;28;20028;-51